sensor_id;sensor_type;location;lat;lon;timestamp;pressure;altitude;pressure_sealevel;temperature
65272;BMP280;51868;48.812;8.198;2023-01-30T00:01:43;-56044.41;;;0.98
65272;BMP280;51868;48.812;8.198;2023-01-30T00:04:12;-56045.72;;;0.96
65272;BMP280;51868;48.812;8.198;2023-01-30T00:06:44;-56050.59;;;0.93
65272;BMP280;51868;48.812;8.198;2023-01-30T00:09:12;-56051.00;;;0.94
65272;BMP280;51868;48.812;8.198;2023-01-30T00:11:40;-56055.13;;;0.93
65272;BMP280;51868;48.812;8.198;2023-01-30T00:14:08;-56056.25;;;0.92
65272;BMP280;51868;48.812;8.198;2023-01-30T00:16:35;-56052.69;;;0.92
65272;BMP280;51868;48.812;8.198;2023-01-30T00:19:03;-56048.69;;;0.88
65272;BMP280;51868;48.812;8.198;2023-01-30T00:21:31;-56053.16;;;0.83
65272;BMP280;51868;48.812;8.198;2023-01-30T00:24:00;-56064.84;;;0.78
65272;BMP280;51868;48.812;8.198;2023-01-30T00:26:27;-56080.88;;;0.75
65272;BMP280;51868;48.812;8.198;2023-01-30T00:28:55;-56095.78;;;0.72
65272;BMP280;51868;48.812;8.198;2023-01-30T00:31:23;-56099.53;;;0.70
65272;BMP280;51868;48.812;8.198;2023-01-30T00:33:51;-56106.88;;;0.68
65272;BMP280;51868;48.812;8.198;2023-01-30T00:36:18;-56119.91;;;0.64
65272;BMP280;51868;48.812;8.198;2023-01-30T00:38:46;-56134.59;;;0.59
65272;BMP280;51868;48.812;8.198;2023-01-30T00:41:15;-56143.47;;;0.56
65272;BMP280;51868;48.812;8.198;2023-01-30T00:43:44;-56147.81;;;0.58
65272;BMP280;51868;48.812;8.198;2023-01-30T00:46:31;-56158.41;;;0.58
65272;BMP280;51868;48.812;8.198;2023-01-30T00:49:17;-56162.22;;;0.60
65272;BMP280;51868;48.812;8.198;2023-01-30T00:51:45;-56158.81;;;0.63
65272;BMP280;51868;48.812;8.198;2023-01-30T00:54:12;-56160.91;;;0.67
65272;BMP280;51868;48.812;8.198;2023-01-30T00:56:41;-56151.09;;;0.69
65272;BMP280;51868;48.812;8.198;2023-01-30T00:59:09;-56158.28;;;0.68
65272;BMP280;51868;48.812;8.198;2023-01-30T01:01:36;-56154.91;;;0.71
65272;BMP280;51868;48.812;8.198;2023-01-30T01:04:04;-56143.78;;;0.75
65272;BMP280;51868;48.812;8.198;2023-01-30T01:06:34;-56130.59;;;0.80
65272;BMP280;51868;48.812;8.198;2023-01-30T01:09:02;-56131.53;;;0.81
65272;BMP280;51868;48.812;8.198;2023-01-30T01:11:30;-56136.25;;;0.79
65272;BMP280;51868;48.812;8.198;2023-01-30T01:14:00;-56141.88;;;0.74
65272;BMP280;51868;48.812;8.198;2023-01-30T01:16:30;-56144.53;;;0.73
65272;BMP280;51868;48.812;8.198;2023-01-30T01:18:58;-56140.00;;;0.73
65272;BMP280;51868;48.812;8.198;2023-01-30T01:21:26;-56146.03;;;0.73
65272;BMP280;51868;48.812;8.198;2023-01-30T01:23:56;-56146.78;;;0.71
65272;BMP280;51868;48.812;8.198;2023-01-30T01:26:25;-56150.38;;;0.71
65272;BMP280;51868;48.812;8.198;2023-01-30T01:28:53;-56167.34;;;0.68
65272;BMP280;51868;48.812;8.198;2023-01-30T01:31:23;-56180.38;;;0.64
65272;BMP280;51868;48.812;8.198;2023-01-30T01:33:51;-56176.00;;;0.62
65272;BMP280;51868;48.812;8.198;2023-01-30T01:36:19;-56175.22;;;0.60
65272;BMP280;51868;48.812;8.198;2023-01-30T01:39:06;-56177.28;;;0.56
65272;BMP280;51868;48.812;8.198;2023-01-30T01:41:34;-56182.97;;;0.55
65272;BMP280;51868;48.812;8.198;2023-01-30T01:44:04;-56187.09;;;0.54
65272;BMP280;51868;48.812;8.198;2023-01-30T01:46:36;-56187.84;;;0.52
65272;BMP280;51868;48.812;8.198;2023-01-30T01:49:07;-56185.41;;;0.51
65272;BMP280;51868;48.812;8.198;2023-01-30T01:51:41;-56174.25;;;0.52
65272;BMP280;51868;48.812;8.198;2023-01-30T01:54:15;-56176.91;;;0.51
65272;BMP280;51868;48.812;8.198;2023-01-30T01:56:45;-56192.38;;;0.43
65272;BMP280;51868;48.812;8.198;2023-01-30T01:59:19;-56203.66;;;0.37
65272;BMP280;51868;48.812;8.198;2023-01-30T02:01:49;-56195.91;;;0.35
65272;BMP280;51868;48.812;8.198;2023-01-30T02:04:19;-56178.16;;;0.36
65272;BMP280;51868;48.812;8.198;2023-01-30T02:07:11;-56175.69;;;0.35
65272;BMP280;51868;48.812;8.198;2023-01-30T02:09:41;-56185.13;;;0.32
65272;BMP280;51868;48.812;8.198;2023-01-30T02:12:10;-56209.47;;;0.27
65272;BMP280;51868;48.812;8.198;2023-01-30T02:14:40;-56226.25;;;0.17
65272;BMP280;51868;48.812;8.198;2023-01-30T02:17:09;-56226.66;;;0.18
65272;BMP280;51868;48.812;8.198;2023-01-30T02:19:45;-56210.97;;;0.23
65272;BMP280;51868;48.812;8.198;2023-01-30T02:22:30;-56197.16;;;0.24
65272;BMP280;51868;48.812;8.198;2023-01-30T02:25:26;-56173.38;;;0.29
65272;BMP280;51868;48.812;8.198;2023-01-30T02:28:23;-56180.53;;;0.28
65272;BMP280;51868;48.812;8.198;2023-01-30T02:31:21;-56177.13;;;0.23
65272;BMP280;51868;48.812;8.198;2023-01-30T02:33:59;-56197.16;;;0.16
65272;BMP280;51868;48.812;8.198;2023-01-30T02:36:41;-56199.97;;;0.09
65272;BMP280;51868;48.812;8.198;2023-01-30T02:39:18;-56218.84;;;-0.01
65272;BMP280;51868;48.812;8.198;2023-01-30T02:41:52;-56227.31;;;-0.05
65272;BMP280;51868;48.812;8.198;2023-01-30T02:44:28;-56230.75;;;-0.08
65272;BMP280;51868;48.812;8.198;2023-01-30T02:47:01;-56217.13;;;-0.08
65272;BMP280;51868;48.812;8.198;2023-01-30T02:49:34;-56200.69;;;-0.01
65272;BMP280;51868;48.812;8.198;2023-01-30T02:52:05;-56189.72;;;0.02
65272;BMP280;51868;48.812;8.198;2023-01-30T02:54:34;-56179.34;;;0.05
65272;BMP280;51868;48.812;8.198;2023-01-30T02:57:02;-56175.91;;;0.04
65272;BMP280;51868;48.812;8.198;2023-01-30T02:59:32;-56163.06;;;0.06
65272;BMP280;51868;48.812;8.198;2023-01-30T03:02:14;-56145.31;;;0.07
65272;BMP280;51868;48.812;8.198;2023-01-30T03:07:45;-56139.81;;;0.06
65272;BMP280;51868;48.812;8.198;2023-01-30T03:10:22;-56124.50;;;0.08
65272;BMP280;51868;48.812;8.198;2023-01-30T03:12:57;-56116.56;;;0.11
65272;BMP280;51868;48.812;8.198;2023-01-30T03:15:29;-56103.16;;;0.13
65272;BMP280;51868;48.812;8.198;2023-01-30T03:18:00;-56070.47;;;0.21
65272;BMP280;51868;48.812;8.198;2023-01-30T03:20:29;-56057.66;;;0.27
65272;BMP280;51868;48.812;8.198;2023-01-30T03:22:57;-56054.50;;;0.33
65272;BMP280;51868;48.812;8.198;2023-01-30T03:25:25;-56055.47;;;0.37
65272;BMP280;51868;48.812;8.198;2023-01-30T03:27:54;-56051.53;;;0.41
65272;BMP280;51868;48.812;8.198;2023-01-30T03:30:23;-56052.50;;;0.46
65272;BMP280;51868;48.812;8.198;2023-01-30T03:32:51;-56043.47;;;0.50
65272;BMP280;51868;48.812;8.198;2023-01-30T03:35:21;-56040.88;;;0.55
65272;BMP280;51868;48.812;8.198;2023-01-30T03:37:49;-56030.13;;;0.60
65272;BMP280;51868;48.812;8.198;2023-01-30T03:40:17;-56018.66;;;0.68
65272;BMP280;51868;48.812;8.198;2023-01-30T03:42:45;-56010.78;;;0.75
65272;BMP280;51868;48.812;8.198;2023-01-30T03:45:13;-56007.81;;;0.79
65272;BMP280;51868;48.812;8.198;2023-01-30T03:47:41;-56001.03;;;0.86
65272;BMP280;51868;48.812;8.198;2023-01-30T03:50:10;-55986.00;;;0.90
65272;BMP280;51868;48.812;8.198;2023-01-30T03:52:39;-55984.47;;;0.90
65272;BMP280;51868;48.812;8.198;2023-01-30T03:55:08;-55983.34;;;0.91
65272;BMP280;51868;48.812;8.198;2023-01-30T03:57:36;-55982.00;;;0.89
65272;BMP280;51868;48.812;8.198;2023-01-30T04:00:04;-55984.63;;;0.88
65272;BMP280;51868;48.812;8.198;2023-01-30T04:02:32;-55982.00;;;0.89
65272;BMP280;51868;48.812;8.198;2023-01-30T04:05:00;-55965.22;;;0.91
65272;BMP280;51868;48.812;8.198;2023-01-30T04:07:28;-55964.47;;;0.93
65272;BMP280;51868;48.812;8.198;2023-01-30T04:09:57;-55959.19;;;0.95
65272;BMP280;51868;48.812;8.198;2023-01-30T04:12:25;-55952.81;;;0.98
65272;BMP280;51868;48.812;8.198;2023-01-30T04:14:52;-55957.16;;;0.99
65272;BMP280;51868;48.812;8.198;2023-01-30T04:17:20;-55948.31;;;1.02
65272;BMP280;51868;48.812;8.198;2023-01-30T04:19:48;-55948.31;;;1.02
65272;BMP280;51868;48.812;8.198;2023-01-30T04:22:15;-55943.28;;;1.07
65272;BMP280;51868;48.812;8.198;2023-01-30T04:24:43;-55939.19;;;1.12
65272;BMP280;51868;48.812;8.198;2023-01-30T04:27:12;-55940.88;;;1.10
65272;BMP280;51868;48.812;8.198;2023-01-30T04:29:40;-55944.28;;;1.11
65272;BMP280;51868;48.812;8.198;2023-01-30T04:32:08;-55943.16;;;1.12
65272;BMP280;51868;48.812;8.198;2023-01-30T04:34:35;-55947.28;;;1.11
65272;BMP280;51868;48.812;8.198;2023-01-30T04:37:04;-55935.22;;;1.11
65272;BMP280;51868;48.812;8.198;2023-01-30T04:39:31;-55934.09;;;1.12
65272;BMP280;51868;48.812;8.198;2023-01-30T04:41:59;-55933.75;;;1.15
65272;BMP280;51868;48.812;8.198;2023-01-30T04:44:28;-55936.19;;;1.16
65272;BMP280;51868;48.812;8.198;2023-01-30T04:46:56;-55947.72;;;1.16
65272;BMP280;51868;48.812;8.198;2023-01-30T04:49:23;-55931.50;;;1.17
65272;BMP280;51868;48.812;8.198;2023-01-30T04:51:51;-55926.44;;;1.18
65272;BMP280;51868;48.812;8.198;2023-01-30T04:54:19;-55930.75;;;1.15
65272;BMP280;51868;48.812;8.198;2023-01-30T04:56:47;-55930.16;;;1.16
65272;BMP280;51868;48.812;8.198;2023-01-30T04:59:15;-55931.50;;;1.17
65272;BMP280;51868;48.812;8.198;2023-01-30T05:01:44;-55925.28;;;1.19
65272;BMP280;51868;48.812;8.198;2023-01-30T05:04:12;-55919.28;;;1.23
65272;BMP280;51868;48.812;8.198;2023-01-30T05:06:39;-55908.56;;;1.24
65272;BMP280;51868;48.812;8.198;2023-01-30T05:09:07;-55905.19;;;1.27
65272;BMP280;51868;48.812;8.198;2023-01-30T05:11:35;-55908.38;;;1.26
65272;BMP280;51868;48.812;8.198;2023-01-30T05:14:03;-55903.13;;;1.28
65272;BMP280;51868;48.812;8.198;2023-01-30T05:16:30;-55895.03;;;1.29
65272;BMP280;51868;48.812;8.198;2023-01-30T05:18:59;-55892.22;;;1.31
65272;BMP280;51868;48.812;8.198;2023-01-30T05:21:27;-55885.63;;;1.32
65272;BMP280;51868;48.812;8.198;2023-01-30T05:23:55;-55883.53;;;1.32
65272;BMP280;51868;48.812;8.198;2023-01-30T05:26:23;-55879.22;;;1.35
65272;BMP280;51868;48.812;8.198;2023-01-30T05:28:52;-55880.03;;;1.37
65272;BMP280;51868;48.812;8.198;2023-01-30T05:31:20;-55881.94;;;1.38
65272;BMP280;51868;48.812;8.198;2023-01-30T05:33:49;-55880.47;;;1.42
65272;BMP280;51868;48.812;8.198;2023-01-30T05:36:21;-55881.44;;;1.42
65272;BMP280;51868;48.812;8.198;2023-01-30T05:38:49;-55876.91;;;1.42
65272;BMP280;51868;48.812;8.198;2023-01-30T05:41:16;-55876.13;;;1.40
65272;BMP280;51868;48.812;8.198;2023-01-30T05:43:48;-55872.94;;;1.42
65272;BMP280;51868;48.812;8.198;2023-01-30T05:46:17;-55871.97;;;1.41
65272;BMP280;51868;48.812;8.198;2023-01-30T05:48:44;-55859.75;;;1.43
65272;BMP280;51868;48.812;8.198;2023-01-30T05:51:18;-55861.75;;;1.38
65272;BMP280;51868;48.812;8.198;2023-01-30T05:53:47;-55870.59;;;1.36
65272;BMP280;51868;48.812;8.198;2023-01-30T05:56:15;-55871.69;;;1.35
65272;BMP280;51868;48.812;8.198;2023-01-30T05:58:48;-55867.03;;;1.36
65272;BMP280;51868;48.812;8.198;2023-01-30T06:01:16;-55869.47;;;1.37
65272;BMP280;51868;48.812;8.198;2023-01-30T06:03:43;-55867.94;;;1.37
65272;BMP280;51868;48.812;8.198;2023-01-30T06:06:12;-55863.28;;;1.38
65272;BMP280;51868;48.812;8.198;2023-01-30T06:08:41;-55852.13;;;1.39
65272;BMP280;51868;48.812;8.198;2023-01-30T06:11:10;-55853.25;;;1.38
65272;BMP280;51868;48.812;8.198;2023-01-30T06:13:38;-55857.59;;;1.39
65272;BMP280;51868;48.812;8.198;2023-01-30T06:16:08;-55864.59;;;1.40
65272;BMP280;51868;48.812;8.198;2023-01-30T06:18:37;-55861.41;;;1.41
65272;BMP280;51868;48.812;8.198;2023-01-30T06:21:06;-55857.06;;;1.40
65272;BMP280;51868;48.812;8.198;2023-01-30T06:23:34;-55857.47;;;1.41
65272;BMP280;51868;48.812;8.198;2023-01-30T06:26:03;-55851.78;;;1.42
65272;BMP280;51868;48.812;8.198;2023-01-30T06:28:35;-55847.25;;;1.42
65272;BMP280;51868;48.812;8.198;2023-01-30T06:31:05;-55853.47;;;1.40
65272;BMP280;51868;48.812;8.198;2023-01-30T06:33:33;-55845.38;;;1.41
65272;BMP280;51868;48.812;8.198;2023-01-30T06:36:01;-55844.97;;;1.40
65272;BMP280;51868;48.812;8.198;2023-01-30T06:38:28;-55842.50;;;1.39
65272;BMP280;51868;48.812;8.198;2023-01-30T06:40:56;-55839.34;;;1.41
65272;BMP280;51868;48.812;8.198;2023-01-30T06:43:25;-55841.00;;;1.39
65272;BMP280;51868;48.812;8.198;2023-01-30T06:45:53;-55846.44;;;1.36
65272;BMP280;51868;48.812;8.198;2023-01-30T06:48:21;-55844.38;;;1.36
65272;BMP280;51868;48.812;8.198;2023-01-30T06:50:48;-55845.72;;;1.38
65272;BMP280;51868;48.812;8.198;2023-01-30T06:53:16;-55844.03;;;1.39
65272;BMP280;51868;48.812;8.198;2023-01-30T06:55:43;-55835.75;;;1.41
65272;BMP280;51868;48.812;8.198;2023-01-30T06:58:13;-55837.09;;;1.43
65272;BMP280;51868;48.812;8.198;2023-01-30T07:00:42;-55835.97;;;1.44
65272;BMP280;51868;48.812;8.198;2023-01-30T07:03:10;-55837.88;;;1.45
65272;BMP280;51868;48.812;8.198;2023-01-30T07:05:40;-55842.22;;;1.46
65272;BMP280;51868;48.812;8.198;2023-01-30T07:08:08;-55840.56;;;1.48
65272;BMP280;51868;48.812;8.198;2023-01-30T07:10:36;-55839.84;;;1.50
65272;BMP280;51868;48.812;8.198;2023-01-30T07:13:04;-55836.09;;;1.52
65272;BMP280;51868;48.812;8.198;2023-01-30T07:15:31;-55846.81;;;1.51
65272;BMP280;51868;48.812;8.198;2023-01-30T07:18:00;-55839.13;;;1.52
65272;BMP280;51868;48.812;8.198;2023-01-30T07:20:28;-55841.00;;;1.53
65272;BMP280;51868;48.812;8.198;2023-01-30T07:22:57;-55836.88;;;1.54
65272;BMP280;51868;48.812;8.198;2023-01-30T07:25:25;-55838.22;;;1.56
65272;BMP280;51868;48.812;8.198;2023-01-30T07:27:56;-55833.69;;;1.56
65272;BMP280;51868;48.812;8.198;2023-01-30T07:30:24;-55837.25;;;1.55
65272;BMP280;51868;48.812;8.198;2023-01-30T07:32:54;-55841.41;;;1.54
65272;BMP280;51868;48.812;8.198;2023-01-30T07:35:25;-55842.91;;;1.54
65272;BMP280;51868;48.812;8.198;2023-01-30T07:37:53;-55835.75;;;1.55
65272;BMP280;51868;48.812;8.198;2023-01-30T07:40:22;-55844.25;;;1.56
65272;BMP280;51868;48.812;8.198;2023-01-30T07:42:57;-55847.81;;;1.55
65272;BMP280;51868;48.812;8.198;2023-01-30T07:45:28;-55844.25;;;1.56
65272;BMP280;51868;48.812;8.198;2023-01-30T07:47:56;-55828.19;;;1.55
65272;BMP280;51868;48.812;8.198;2023-01-30T07:50:25;-55835.75;;;1.55
65272;BMP280;51868;48.812;8.198;2023-01-30T07:52:53;-55834.81;;;1.55
65272;BMP280;51868;48.812;8.198;2023-01-30T07:55:20;-55832.72;;;1.55
65272;BMP280;51868;48.812;8.198;2023-01-30T07:57:48;-55841.78;;;1.55
65272;BMP280;51868;48.812;8.198;2023-01-30T08:00:17;-55841.22;;;1.56
65272;BMP280;51868;48.812;8.198;2023-01-30T08:02:45;-55834.63;;;1.56
65272;BMP280;51868;48.812;8.198;2023-01-30T08:05:13;-55838.22;;;1.56
65272;BMP280;51868;48.812;8.198;2023-01-30T08:07:42;-55834.31;;;1.59
65272;BMP280;51868;48.812;8.198;2023-01-30T08:10:10;-55832.84;;;1.63
65272;BMP280;51868;48.812;8.198;2023-01-30T08:12:38;-55833.06;;;1.66
65272;BMP280;51868;48.812;8.198;2023-01-30T08:15:07;-55829.09;;;1.65
65272;BMP280;51868;48.812;8.198;2023-01-30T08:17:35;-55832.84;;;1.63
65272;BMP280;51868;48.812;8.198;2023-01-30T08:20:03;-55832.44;;;1.62
65272;BMP280;51868;48.812;8.198;2023-01-30T08:22:33;-55827.69;;;1.60
65272;BMP280;51868;48.812;8.198;2023-01-30T08:25:02;-55838.03;;;1.57
65272;BMP280;51868;48.812;8.198;2023-01-30T08:27:32;-55849.28;;;1.51
65272;BMP280;51868;48.812;8.198;2023-01-30T08:29:59;-55855.09;;;1.48
65272;BMP280;51868;48.812;8.198;2023-01-30T08:32:27;-55860.75;;;1.47
65272;BMP280;51868;48.812;8.198;2023-01-30T08:34:55;-55872.97;;;1.46
65272;BMP280;51868;48.812;8.198;2023-01-30T08:37:22;-55856.78;;;1.47
65272;BMP280;51868;48.812;8.198;2023-01-30T08:39:50;-55850.56;;;1.48
65272;BMP280;51868;48.812;8.198;2023-01-30T08:42:22;-55860.16;;;1.48
65272;BMP280;51868;48.812;8.198;2023-01-30T08:44:49;-55847.53;;;1.48
65272;BMP280;51868;48.812;8.198;2023-01-30T08:47:17;-55843.78;;;1.51
65272;BMP280;51868;48.812;8.198;2023-01-30T08:49:45;-55848.00;;;1.54
65272;BMP280;51868;48.812;8.198;2023-01-30T08:52:12;-55834.81;;;1.55
65272;BMP280;51868;48.812;8.198;2023-01-30T08:54:40;-55841.22;;;1.56
65272;BMP280;51868;48.812;8.198;2023-01-30T08:57:08;-55838.75;;;1.55
65272;BMP280;51868;48.812;8.198;2023-01-30T08:59:37;-55826.13;;;1.56
65272;BMP280;51868;48.812;8.198;2023-01-30T09:02:05;-55825.03;;;1.57
65272;BMP280;51868;48.812;8.198;2023-01-30T09:04:33;-55813.50;;;1.56
65272;BMP280;51868;48.812;8.198;2023-01-30T09:07:00;-55812.38;;;1.57
65272;BMP280;51868;48.812;8.198;2023-01-30T09:09:28;-55814.69;;;1.59
65272;BMP280;51868;48.812;8.198;2023-01-30T09:11:56;-55808.84;;;1.62
65272;BMP280;51868;48.812;8.198;2023-01-30T09:14:24;-55798.75;;;1.67
65272;BMP280;51868;48.812;8.198;2023-01-30T09:16:53;-55791.06;;;1.68
65272;BMP280;51868;48.812;8.198;2023-01-30T09:19:22;-55785.81;;;1.70
65272;BMP280;51868;48.812;8.198;2023-01-30T09:21:49;-55784.72;;;1.76
65272;BMP280;51868;48.812;8.198;2023-01-30T09:24:18;-55792.28;;;1.76
65272;BMP280;51868;48.812;8.198;2023-01-30T09:26:46;-55776.84;;;1.79
65272;BMP280;51868;48.812;8.198;2023-01-30T09:29:14;-55781.22;;;1.80
65272;BMP280;51868;48.812;8.198;2023-01-30T09:31:41;-55763.91;;;1.82
65272;BMP280;51868;48.812;8.198;2023-01-30T09:34:10;-55758.91;;;1.87
65272;BMP280;51868;48.812;8.198;2023-01-30T09:36:38;-55746.13;;;1.89
65272;BMP280;51868;48.812;8.198;2023-01-30T09:39:06;-55744.38;;;1.96
65272;BMP280;51868;48.812;8.198;2023-01-30T09:41:46;-55723.94;;;2.04
65272;BMP280;51868;48.812;8.198;2023-01-30T09:47:22;-55700.03;;;2.16
65272;BMP280;51868;48.812;8.198;2023-01-30T09:50:02;-55692.72;;;2.19
65272;BMP280;51868;48.812;8.198;2023-01-30T09:52:39;-55680.56;;;2.24
65272;BMP280;51868;48.812;8.198;2023-01-30T09:55:17;-55683.19;;;2.23
65272;BMP280;51868;48.812;8.198;2023-01-30T09:57:46;-55684.47;;;2.21
65272;BMP280;51868;48.812;8.198;2023-01-30T10:00:21;-55681.03;;;2.20
65272;BMP280;51868;48.812;8.198;2023-01-30T10:02:56;-55686.28;;;2.18
65272;BMP280;51868;48.812;8.198;2023-01-30T10:05:37;-55683.03;;;2.15
65272;BMP280;51868;48.812;8.198;2023-01-30T10:08:20;-55691.28;;;2.13
65272;BMP280;51868;48.812;8.198;2023-01-30T10:10:56;-55687.00;;;2.16
65272;BMP280;51868;48.812;8.198;2023-01-30T10:13:56;-55698.44;;;2.12
65272;BMP280;51868;48.812;8.198;2023-01-30T10:16:33;-55696.69;;;2.09
65272;BMP280;51868;48.812;8.198;2023-01-30T10:22:11;-55688.84;;;2.12
65272;BMP280;51868;48.812;8.198;2023-01-30T10:24:48;-55708.91;;;2.08
65272;BMP280;51868;48.812;8.198;2023-01-30T10:27:18;-55708.47;;;2.03
65272;BMP280;51868;48.812;8.198;2023-01-30T10:29:50;-55710.84;;;1.99
65272;BMP280;51868;48.812;8.198;2023-01-30T10:32:22;-55714.66;;;2.01
65272;BMP280;51868;48.812;8.198;2023-01-30T10:34:53;-55700.34;;;2.03
65272;BMP280;51868;48.812;8.198;2023-01-30T10:37:26;-55704.72;;;2.05
65272;BMP280;51868;48.812;8.198;2023-01-30T10:40:03;-55694.31;;;2.03
65272;BMP280;51868;48.812;8.198;2023-01-30T10:42:37;-55695.81;;;2.03
65272;BMP280;51868;48.812;8.198;2023-01-30T10:45:11;-55694.72;;;2.04
65272;BMP280;51868;48.812;8.198;2023-01-30T10:47:49;-55678.75;;;2.08
65272;BMP280;51868;48.812;8.198;2023-01-30T10:50:20;-55675.97;;;2.10
65272;BMP280;51868;48.812;8.198;2023-01-30T10:52:57;-55681.94;;;2.06
65272;BMP280;51868;48.812;8.198;2023-01-30T10:55:30;-55671.94;;;2.06
65272;BMP280;51868;48.812;8.198;2023-01-30T10:58:11;-55675.53;;;2.05
65272;BMP280;51868;48.812;8.198;2023-01-30T11:00:42;-55669.50;;;2.05
65272;BMP280;51868;48.812;8.198;2023-01-30T11:03:24;-55670.81;;;2.07
65272;BMP280;51868;48.812;8.198;2023-01-30T11:05:58;-55669.31;;;2.07
65272;BMP280;51868;48.812;8.198;2023-01-30T11:08:30;-55669.88;;;2.06
65272;BMP280;51868;48.812;8.198;2023-01-30T11:10:59;-55670.03;;;2.05
65272;BMP280;51868;48.812;8.198;2023-01-30T11:13:29;-55677.34;;;2.02
65272;BMP280;51868;48.812;8.198;2023-01-30T11:15:58;-55685.84;;;2.03
65272;BMP280;51868;48.812;8.198;2023-01-30T11:18:27;-55682.25;;;2.03
65272;BMP280;51868;48.812;8.198;2023-01-30T11:21:19;-55678.84;;;2.02
65272;BMP280;51868;48.812;8.198;2023-01-30T11:24:03;-55678.44;;;2.01
65272;BMP280;51868;48.812;8.198;2023-01-30T11:26:32;-55674.00;;;2.05
65272;BMP280;51868;48.812;8.198;2023-01-30T11:29:27;-55670.28;;;2.07
65272;BMP280;51868;48.812;8.198;2023-01-30T11:31:55;-55677.97;;;2.06
65272;BMP280;51868;48.812;8.198;2023-01-30T11:34:23;-55680.97;;;2.06
65272;BMP280;51868;48.812;8.198;2023-01-30T11:36:51;-55683.75;;;2.03
65272;BMP280;51868;48.812;8.198;2023-01-30T11:39:27;-55678.84;;;2.02
65272;BMP280;51868;48.812;8.198;2023-01-30T11:41:57;-55690.50;;;2.01
65272;BMP280;51868;48.812;8.198;2023-01-30T11:44:28;-55679.72;;;1.99
65272;BMP280;51868;48.812;8.198;2023-01-30T11:46:58;-55683.69;;;1.99
65272;BMP280;51868;48.812;8.198;2023-01-30T11:49:31;-55684.09;;;2.00
65272;BMP280;51868;48.812;8.198;2023-01-30T11:52:25;-55687.25;;;1.99
65272;BMP280;51868;48.812;8.198;2023-01-30T11:54:57;-55686.56;;;2.01
65272;BMP280;51868;48.812;8.198;2023-01-30T11:57:26;-55682.97;;;2.01
65272;BMP280;51868;48.812;8.198;2023-01-30T11:59:56;-55682.19;;;1.99
65272;BMP280;51868;48.812;8.198;2023-01-30T12:02:29;-55684.81;;;1.98
65272;BMP280;51868;48.812;8.198;2023-01-30T12:05:00;-55699.25;;;1.95
65272;BMP280;51868;48.812;8.198;2023-01-30T12:07:30;-55694.75;;;1.95
65272;BMP280;51868;48.812;8.198;2023-01-30T12:10:00;-55696.41;;;1.93
65272;BMP280;51868;48.812;8.198;2023-01-30T12:12:31;-55693.09;;;1.96
65272;BMP280;51868;48.812;8.198;2023-01-30T12:15:05;-55681.41;;;1.97
65272;BMP280;51868;48.812;8.198;2023-01-30T12:17:43;-55685.53;;;1.96
65272;BMP280;51868;48.812;8.198;2023-01-30T12:20:18;-55685.91;;;1.97
65272;BMP280;51868;48.812;8.198;2023-01-30T12:23:01;-55687.97;;;1.97
65272;BMP280;51868;48.812;8.198;2023-01-30T12:25:38;-55684.59;;;1.96
65272;BMP280;51868;48.812;8.198;2023-01-30T12:28:12;-55687.91;;;1.92
65272;BMP280;51868;48.812;8.198;2023-01-30T12:30:43;-55692.44;;;1.92
65272;BMP280;51868;48.812;8.198;2023-01-30T12:33:13;-55693.34;;;1.89
65272;BMP280;51868;48.812;8.198;2023-01-30T12:36:01;-55700.78;;;1.85
65272;BMP280;51868;48.812;8.198;2023-01-30T12:39:01;-55714.63;;;1.78
65272;BMP280;51868;48.812;8.198;2023-01-30T12:41:44;-55720.97;;;1.75
65272;BMP280;51868;48.812;8.198;2023-01-30T12:44:26;-55731.06;;;1.69
65272;BMP280;51868;48.812;8.198;2023-01-30T12:47:07;-55733.53;;;1.70
65272;BMP280;51868;48.812;8.198;2023-01-30T12:49:50;-55724.88;;;1.71
65272;BMP280;51868;48.812;8.198;2023-01-30T12:52:37;-55732.41;;;1.71
65272;BMP280;51868;48.812;8.198;2023-01-30T12:55:20;-55736.50;;;1.66
65272;BMP280;51868;48.812;8.198;2023-01-30T12:57:53;-55736.72;;;1.68
65272;BMP280;51868;48.812;8.198;2023-01-30T13:00:36;-55735.78;;;1.68
65272;BMP280;51868;48.812;8.198;2023-01-30T13:03:18;-55730.34;;;1.72
65272;BMP280;51868;48.812;8.198;2023-01-30T13:05:51;-55730.19;;;1.73
65272;BMP280;51868;48.812;8.198;2023-01-30T13:08:31;-55737.16;;;1.74
65272;BMP280;51868;48.812;8.198;2023-01-30T13:11:06;-55731.78;;;1.77
65272;BMP280;51868;48.812;8.198;2023-01-30T13:13:44;-55734.94;;;1.76
65272;BMP280;51868;48.812;8.198;2023-01-30T13:16:22;-55754.84;;;1.68
65272;BMP280;51868;48.812;8.198;2023-01-30T13:18:54;-55758.78;;;1.69
65272;BMP280;51868;48.812;8.198;2023-01-30T13:21:24;-55754.84;;;1.68
65272;BMP280;51868;48.812;8.198;2023-01-30T13:24:03;-55754.44;;;1.67
65272;BMP280;51868;48.812;8.198;2023-01-30T13:26:35;-55745.78;;;1.68
65272;BMP280;51868;48.812;8.198;2023-01-30T13:29:11;-55750.69;;;1.69
65272;BMP280;51868;48.812;8.198;2023-01-30T13:31:48;-55743.56;;;1.70
65272;BMP280;51868;48.812;8.198;2023-01-30T13:34:23;-55745.66;;;1.74
65272;BMP280;51868;48.812;8.198;2023-01-30T13:36:55;-55742.09;;;1.75
65272;BMP280;51868;48.812;8.198;2023-01-30T13:39:32;-55752.25;;;1.74
65272;BMP280;51868;48.812;8.198;2023-01-30T13:42:13;-55748.88;;;1.73
65272;BMP280;51868;48.812;8.198;2023-01-30T13:44:45;-55757.50;;;1.72
65272;BMP280;51868;48.812;8.198;2023-01-30T13:47:25;-55762.03;;;1.72
65272;BMP280;51868;48.812;8.198;2023-01-30T13:50:00;-55764.69;;;1.70
65272;BMP280;51868;48.812;8.198;2023-01-30T13:52:39;-55756.41;;;1.73
65272;BMP280;51868;48.812;8.198;2023-01-30T13:55:13;-55762.44;;;1.73
65272;BMP280;51868;48.812;8.198;2023-01-30T13:57:48;-55769.03;;;1.72
65272;BMP280;51868;48.812;8.198;2023-01-30T14:00:29;-55759.09;;;1.76
65272;BMP280;51868;48.812;8.198;2023-01-30T14:03:23;-55757.66;;;1.80
65272;BMP280;51868;48.812;8.198;2023-01-30T14:06:11;-55750.91;;;1.82
65272;BMP280;51868;48.812;8.198;2023-01-30T14:08:49;-55752.06;;;1.85
65272;BMP280;51868;48.812;8.198;2023-01-30T14:11:29;-55735.56;;;1.89
65272;BMP280;51868;48.812;8.198;2023-01-30T14:14:03;-55735.81;;;1.91
65272;BMP280;51868;48.812;8.198;2023-01-30T14:16:46;-55732.44;;;1.95
65272;BMP280;51868;48.812;8.198;2023-01-30T14:19:33;-55731.00;;;1.99
65272;BMP280;51868;48.812;8.198;2023-01-30T14:22:15;-55732.75;;;2.01
65272;BMP280;51868;48.812;8.198;2023-01-30T14:24:48;-55729.97;;;2.04
65272;BMP280;51868;48.812;8.198;2023-01-30T14:27:32;-55732.25;;;2.06
65272;BMP280;51868;48.812;8.198;2023-01-30T14:29:59;-55723.59;;;2.07
65272;BMP280;51868;48.812;8.198;2023-01-30T14:32:49;-55724.56;;;2.07
65272;BMP280;51868;48.812;8.198;2023-01-30T14:35:24;-55724.47;;;2.13
65272;BMP280;51868;48.812;8.198;2023-01-30T14:38:16;-55721.69;;;2.16
65272;BMP280;51868;48.812;8.198;2023-01-30T14:40:46;-55717.00;;;2.17
65272;BMP280;51868;48.812;8.198;2023-01-30T14:43:50;-55715.34;;;2.19
65272;BMP280;51868;48.812;8.198;2023-01-30T14:46:46;-55708.25;;;2.24